sensor_id;sensor_type;location;lat;lon;timestamp;P1;durP1;ratioP1;P2;durP2;ratioP2
51499;SDS011;39101;53.478;6.158;2022-10-31T00:02:23;21.27;;;12.13;;
51499;SDS011;39101;53.478;6.158;2022-10-31T00:04:48;19.30;;;11.77;;
51499;SDS011;39101;53.478;6.158;2022-10-31T00:07:14;21.35;;;12.20;;
51499;SDS011;39101;53.478;6.158;2022-10-31T00:09:40;23.73;;;12.95;;
51499;SDS011;39101;53.478;6.158;2022-10-31T00:12:05;28.00;;;14.23;;
51499;SDS011;39101;53.478;6.158;2022-10-31T00:14:31;21.90;;;13.07;;
51499;SDS011;39101;53.478;6.158;2022-10-31T00:16:57;21.98;;;13.65;;
51499;SDS011;39101;53.478;6.158;2022-10-31T00:19:22;26.63;;;14.52;;
51499;SDS011;39101;53.478;6.158;2022-10-31T00:21:48;25.55;;;14.23;;
51499;SDS011;39101;53.478;6.158;2022-10-31T00:24:16;27.33;;;13.98;;
51499;SDS011;39101;53.478;6.158;2022-10-31T00:26:41;28.77;;;14.60;;
51499;SDS011;39101;53.478;6.158;2022-10-31T00:29:07;27.33;;;15.38;;
51499;SDS011;39101;53.478;6.158;2022-10-31T00:31:33;24.98;;;15.00;;
51499;SDS011;39101;53.478;6.158;2022-10-31T00:33:58;27.30;;;14.93;;
51499;SDS011;39101;53.478;6.158;2022-10-31T00:36:24;29.90;;;15.15;;
51499;SDS011;39101;53.478;6.158;2022-10-31T00:38:50;23.02;;;15.05;;
51499;SDS011;39101;53.478;6.158;2022-10-31T00:41:16;24.33;;;14.38;;
51499;SDS011;39101;53.478;6.158;2022-10-31T00:43:42;25.27;;;15.57;;
51499;SDS011;39101;53.478;6.158;2022-10-31T00:46:09;22.80;;;15.70;;
51499;SDS011;39101;53.478;6.158;2022-10-31T00:48:35;25.98;;;16.48;;
51499;SDS011;39101;53.478;6.158;2022-10-31T00:51:01;22.55;;;15.73;;
51499;SDS011;39101;53.478;6.158;2022-10-31T00:53:27;27.38;;;16.88;;
51499;SDS011;39101;53.478;6.158;2022-10-31T00:55:52;31.52;;;18.30;;
51499;SDS011;39101;53.478;6.158;2022-10-31T00:58:18;27.52;;;17.63;;
51499;SDS011;39101;53.478;6.158;2022-10-31T01:00:46;29.75;;;16.30;;
51499;SDS011;39101;53.478;6.158;2022-10-31T01:03:20;31.48;;;16.52;;
51499;SDS011;39101;53.478;6.158;2022-10-31T01:05:54;25.70;;;16.85;;
51499;SDS011;39101;53.478;6.158;2022-10-31T01:08:24;24.70;;;16.17;;
51499;SDS011;39101;53.478;6.158;2022-10-31T01:13:43;28.70;;;16.23;;
51499;SDS011;39101;53.478;6.158;2022-10-31T01:16:10;24.05;;;15.63;;
51499;SDS011;39101;53.478;6.158;2022-10-31T01:18:37;25.95;;;16.08;;
51499;SDS011;39101;53.478;6.158;2022-10-31T01:21:05;29.50;;;15.93;;
51499;SDS011;39101;53.478;6.158;2022-10-31T01:23:30;27.67;;;15.10;;
51499;SDS011;39101;53.478;6.158;2022-10-31T01:26:07;22.40;;;15.80;;
51499;SDS011;39101;53.478;6.158;2022-10-31T01:28:53;26.48;;;15.85;;
51499;SDS011;39101;53.478;6.158;2022-10-31T01:31:22;26.83;;;14.93;;
51499;SDS011;39101;53.478;6.158;2022-10-31T01:33:49;22.23;;;16.05;;
51499;SDS011;39101;53.478;6.158;2022-10-31T01:36:19;27.98;;;17.23;;
51499;SDS011;39101;53.478;6.158;2022-10-31T01:38:54;25.73;;;16.17;;
51499;SDS011;39101;53.478;6.158;2022-10-31T01:41:24;28.15;;;15.75;;
51499;SDS011;39101;53.478;6.158;2022-10-31T01:44:02;32.95;;;16.73;;
51499;SDS011;39101;53.478;6.158;2022-10-31T01:49:14;26.13;;;16.42;;
51499;SDS011;39101;53.478;6.158;2022-10-31T01:52:06;25.70;;;17.35;;
51499;SDS011;39101;53.478;6.158;2022-10-31T01:54:41;27.80;;;17.63;;
51499;SDS011;39101;53.478;6.158;2022-10-31T01:57:11;26.63;;;18.38;;
51499;SDS011;39101;53.478;6.158;2022-10-31T01:59:40;30.73;;;17.13;;
51499;SDS011;39101;53.478;6.158;2022-10-31T02:02:10;24.25;;;16.85;;
51499;SDS011;39101;53.478;6.158;2022-10-31T02:04:38;26.30;;;18.02;;
51499;SDS011;39101;53.478;6.158;2022-10-31T02:07:08;25.02;;;17.10;;
51499;SDS011;39101;53.478;6.158;2022-10-31T02:09:38;28.50;;;18.42;;
51499;SDS011;39101;53.478;6.158;2022-10-31T02:12:05;31.25;;;18.40;;
51499;SDS011;39101;53.478;6.158;2022-10-31T02:14:34;30.08;;;19.95;;
51499;SDS011;39101;53.478;6.158;2022-10-31T02:17:01;28.05;;;18.75;;
51499;SDS011;39101;53.478;6.158;2022-10-31T02:19:30;28.63;;;19.10;;
51499;SDS011;39101;53.478;6.158;2022-10-31T02:22:15;24.75;;;17.95;;
51499;SDS011;39101;53.478;6.158;2022-10-31T02:30:51;29.13;;;18.75;;
51499;SDS011;39101;53.478;6.158;2022-10-31T02:41:20;29.75;;;18.15;;
51499;SDS011;39101;53.478;6.158;2022-10-31T02:46:49;30.80;;;17.98;;
51499;SDS011;39101;53.478;6.158;2022-10-31T02:51:51;29.85;;;18.13;;
51499;SDS011;39101;53.478;6.158;2022-10-31T02:54:18;31.33;;;18.23;;
51499;SDS011;39101;53.478;6.158;2022-10-31T02:56:50;26.30;;;17.50;;
51499;SDS011;39101;53.478;6.158;2022-10-31T02:59:19;27.88;;;18.27;;
51499;SDS011;39101;53.478;6.158;2022-10-31T03:10:51;29.48;;;19.80;;
51499;SDS011;39101;53.478;6.158;2022-10-31T03:16:13;33.33;;;19.80;;
51499;SDS011;39101;53.478;6.158;2022-10-31T03:21:14;32.67;;;21.85;;
51499;SDS011;39101;53.478;6.158;2022-10-31T03:23:45;31.67;;;20.63;;
51499;SDS011;39101;53.478;6.158;2022-10-31T03:26:12;29.90;;;21.92;;
51499;SDS011;39101;53.478;6.158;2022-10-31T03:31:33;30.15;;;21.58;;
51499;SDS011;39101;53.478;6.158;2022-10-31T03:34:03;35.90;;;22.50;;
51499;SDS011;39101;53.478;6.158;2022-10-31T03:36:31;30.90;;;21.77;;
51499;SDS011;39101;53.478;6.158;2022-10-31T03:39:01;29.00;;;21.05;;
51499;SDS011;39101;53.478;6.158;2022-10-31T03:41:30;29.88;;;22.38;;
51499;SDS011;39101;53.478;6.158;2022-10-31T03:44:01;27.90;;;21.33;;
51499;SDS011;39101;53.478;6.158;2022-10-31T03:46:33;30.55;;;20.23;;
51499;SDS011;39101;53.478;6.158;2022-10-31T03:48:59;31.65;;;20.92;;
51499;SDS011;39101;53.478;6.158;2022-10-31T03:51:29;34.17;;;22.60;;
51499;SDS011;39101;53.478;6.158;2022-10-31T03:54:20;33.53;;;21.80;;
51499;SDS011;39101;53.478;6.158;2022-10-31T03:57:13;33.75;;;22.83;;
51499;SDS011;39101;53.478;6.158;2022-10-31T04:00:00;30.92;;;21.65;;
51499;SDS011;39101;53.478;6.158;2022-10-31T04:02:34;36.35;;;21.52;;
51499;SDS011;39101;53.478;6.158;2022-10-31T04:05:02;30.45;;;21.15;;
51499;SDS011;39101;53.478;6.158;2022-10-31T04:07:30;29.33;;;21.08;;
51499;SDS011;39101;53.478;6.158;2022-10-31T04:10:01;31.23;;;20.55;;
51499;SDS011;39101;53.478;6.158;2022-10-31T04:12:30;32.55;;;21.08;;
51499;SDS011;39101;53.478;6.158;2022-10-31T04:14:57;28.40;;;20.08;;
51499;SDS011;39101;53.478;6.158;2022-10-31T04:17:24;29.63;;;21.42;;
51499;SDS011;39101;53.478;6.158;2022-10-31T04:19:54;31.98;;;21.65;;
51499;SDS011;39101;53.478;6.158;2022-10-31T04:22:20;30.05;;;21.27;;
51499;SDS011;39101;53.478;6.158;2022-10-31T04:24:46;29.48;;;20.20;;
51499;SDS011;39101;53.478;6.158;2022-10-31T04:27:11;32.85;;;20.48;;
51499;SDS011;39101;53.478;6.158;2022-10-31T04:29:37;28.63;;;21.15;;
51499;SDS011;39101;53.478;6.158;2022-10-31T04:32:03;27.88;;;20.77;;
51499;SDS011;39101;53.478;6.158;2022-10-31T04:34:28;30.60;;;20.17;;
51499;SDS011;39101;53.478;6.158;2022-10-31T04:36:54;32.63;;;21.90;;
51499;SDS011;39101;53.478;6.158;2022-10-31T04:39:20;30.55;;;21.77;;
51499;SDS011;39101;53.478;6.158;2022-10-31T04:41:45;30.70;;;20.95;;
51499;SDS011;39101;53.478;6.158;2022-10-31T04:44:11;26.58;;;19.40;;
51499;SDS011;39101;53.478;6.158;2022-10-31T04:46:36;32.25;;;21.13;;
51499;SDS011;39101;53.478;6.158;2022-10-31T04:49:02;31.95;;;20.92;;
51499;SDS011;39101;53.478;6.158;2022-10-31T04:51:28;30.70;;;21.17;;
51499;SDS011;39101;53.478;6.158;2022-10-31T04:53:53;27.10;;;19.40;;
51499;SDS011;39101;53.478;6.158;2022-10-31T04:56:19;32.10;;;21.10;;
51499;SDS011;39101;53.478;6.158;2022-10-31T04:58:45;30.65;;;20.98;;
51499;SDS011;39101;53.478;6.158;2022-10-31T05:01:10;33.85;;;22.15;;
51499;SDS011;39101;53.478;6.158;2022-10-31T05:03:36;29.05;;;20.58;;
51499;SDS011;39101;53.478;6.158;2022-10-31T05:06:04;32.25;;;21.50;;
51499;SDS011;39101;53.478;6.158;2022-10-31T05:08:30;31.83;;;21.27;;
51499;SDS011;39101;53.478;6.158;2022-10-31T05:10:59;31.80;;;21.77;;
51499;SDS011;39101;53.478;6.158;2022-10-31T05:13:26;27.50;;;21.00;;
51499;SDS011;39101;53.478;6.158;2022-10-31T05:15:51;30.25;;;20.67;;
51499;SDS011;39101;53.478;6.158;2022-10-31T05:18:17;29.83;;;21.42;;
51499;SDS011;39101;53.478;6.158;2022-10-31T05:20:43;29.48;;;22.42;;
51499;SDS011;39101;53.478;6.158;2022-10-31T05:23:08;30.05;;;21.58;;
51499;SDS011;39101;53.478;6.158;2022-10-31T05:25:34;28.35;;;20.17;;
51499;SDS011;39101;53.478;6.158;2022-10-31T05:28:00;30.00;;;21.10;;
51499;SDS011;39101;53.478;6.158;2022-10-31T05:30:27;30.08;;;20.60;;
51499;SDS011;39101;53.478;6.158;2022-10-31T05:32:54;31.83;;;21.33;;
51499;SDS011;39101;53.478;6.158;2022-10-31T05:35:21;30.10;;;21.23;;
51499;SDS011;39101;53.478;6.158;2022-10-31T05:37:51;29.20;;;21.60;;
51499;SDS011;39101;53.478;6.158;2022-10-31T05:40:18;31.85;;;21.80;;
51499;SDS011;39101;53.478;6.158;2022-10-31T05:42:45;32.30;;;21.85;;
51499;SDS011;39101;53.478;6.158;2022-10-31T05:45:11;33.47;;;22.52;;
51499;SDS011;39101;53.478;6.158;2022-10-31T05:47:42;32.42;;;20.67;;
51499;SDS011;39101;53.478;6.158;2022-10-31T05:50:14;30.55;;;21.35;;
51499;SDS011;39101;53.478;6.158;2022-10-31T05:52:40;32.00;;;23.23;;
51499;SDS011;39101;53.478;6.158;2022-10-31T05:55:06;28.55;;;20.70;;
51499;SDS011;39101;53.478;6.158;2022-10-31T05:57:32;33.70;;;21.60;;
51499;SDS011;39101;53.478;6.158;2022-10-31T05:59:58;35.58;;;23.02;;
51499;SDS011;39101;53.478;6.158;2022-10-31T06:02:24;29.75;;;20.95;;
51499;SDS011;39101;53.478;6.158;2022-10-31T06:04:51;31.95;;;21.13;;
51499;SDS011;39101;53.478;6.158;2022-10-31T06:07:17;31.40;;;21.48;;
51499;SDS011;39101;53.478;6.158;2022-10-31T06:09:43;30.38;;;20.17;;
51499;SDS011;39101;53.478;6.158;2022-10-31T06:12:09;27.00;;;20.35;;
51499;SDS011;39101;53.478;6.158;2022-10-31T06:14:34;28.02;;;22.33;;
51499;SDS011;39101;53.478;6.158;2022-10-31T06:17:00;30.52;;;22.05;;
51499;SDS011;39101;53.478;6.158;2022-10-31T06:19:26;29.00;;;21.48;;
51499;SDS011;39101;53.478;6.158;2022-10-31T06:21:51;35.83;;;22.73;;
51499;SDS011;39101;53.478;6.158;2022-10-31T06:24:17;29.65;;;21.00;;
51499;SDS011;39101;53.478;6.158;2022-10-31T06:26:43;31.02;;;22.63;;
51499;SDS011;39101;53.478;6.158;2022-10-31T06:29:08;30.77;;;22.13;;
51499;SDS011;39101;53.478;6.158;2022-10-31T06:31:34;32.33;;;23.27;;
51499;SDS011;39101;53.478;6.158;2022-10-31T06:33:59;29.58;;;22.63;;
51499;SDS011;39101;53.478;6.158;2022-10-31T06:36:25;35.67;;;23.85;;
51499;SDS011;39101;53.478;6.158;2022-10-31T06:38:51;29.48;;;22.25;;
51499;SDS011;39101;53.478;6.158;2022-10-31T06:41:16;29.23;;;22.40;;
51499;SDS011;39101;53.478;6.158;2022-10-31T06:43:42;31.33;;;21.52;;
51499;SDS011;39101;53.478;6.158;2022-10-31T06:46:10;34.42;;;24.15;;
51499;SDS011;39101;53.478;6.158;2022-10-31T06:48:36;33.38;;;23.95;;
51499;SDS011;39101;53.478;6.158;2022-10-31T06:51:02;30.75;;;23.10;;
51499;SDS011;39101;53.478;6.158;2022-10-31T06:53:27;35.10;;;23.05;;
51499;SDS011;39101;53.478;6.158;2022-10-31T06:55:56;31.65;;;22.52;;
51499;SDS011;39101;53.478;6.158;2022-10-31T06:58:22;36.42;;;23.00;;
51499;SDS011;39101;53.478;6.158;2022-10-31T07:00:47;34.38;;;23.02;;
51499;SDS011;39101;53.478;6.158;2022-10-31T07:03:14;27.55;;;21.77;;
51499;SDS011;39101;53.478;6.158;2022-10-31T07:05:43;29.17;;;21.38;;
51499;SDS011;39101;53.478;6.158;2022-10-31T07:08:13;35.13;;;22.88;;
51499;SDS011;39101;53.478;6.158;2022-10-31T07:10:39;28.52;;;20.73;;
51499;SDS011;39101;53.478;6.158;2022-10-31T07:13:08;30.73;;;21.25;;
51499;SDS011;39101;53.478;6.158;2022-10-31T07:15:37;28.50;;;22.30;;
51499;SDS011;39101;53.478;6.158;2022-10-31T07:18:04;26.33;;;20.40;;
51499;SDS011;39101;53.478;6.158;2022-10-31T07:20:31;31.52;;;19.88;;
51499;SDS011;39101;53.478;6.158;2022-10-31T07:22:57;31.23;;;22.77;;
51499;SDS011;39101;53.478;6.158;2022-10-31T07:25:23;28.52;;;20.90;;
51499;SDS011;39101;53.478;6.158;2022-10-31T07:27:49;26.08;;;20.17;;
51499;SDS011;39101;53.478;6.158;2022-10-31T07:30:15;27.08;;;19.55;;
51499;SDS011;39101;53.478;6.158;2022-10-31T07:35:11;29.17;;;20.38;;
51499;SDS011;39101;53.478;6.158;2022-10-31T07:37:38;27.40;;;20.55;;
51499;SDS011;39101;53.478;6.158;2022-10-31T07:40:04;28.35;;;20.50;;
51499;SDS011;39101;53.478;6.158;2022-10-31T07:42:38;30.67;;;21.00;;
51499;SDS011;39101;53.478;6.158;2022-10-31T07:45:05;28.80;;;20.88;;
51499;SDS011;39101;53.478;6.158;2022-10-31T07:50:04;27.75;;;19.83;;
51499;SDS011;39101;53.478;6.158;2022-10-31T07:52:30;30.52;;;20.65;;
51499;SDS011;39101;53.478;6.158;2022-10-31T07:54:55;29.70;;;21.02;;
51499;SDS011;39101;53.478;6.158;2022-10-31T07:57:21;26.75;;;21.58;;
51499;SDS011;39101;53.478;6.158;2022-10-31T07:59:47;27.13;;;21.85;;
51499;SDS011;39101;53.478;6.158;2022-10-31T08:02:12;27.63;;;20.65;;
51499;SDS011;39101;53.478;6.158;2022-10-31T08:04:38;27.23;;;20.45;;
51499;SDS011;39101;53.478;6.158;2022-10-31T08:07:04;26.38;;;21.40;;
51499;SDS011;39101;53.478;6.158;2022-10-31T08:09:29;26.27;;;20.77;;
51499;SDS011;39101;53.478;6.158;2022-10-31T08:11:55;25.88;;;21.05;;
51499;SDS011;39101;53.478;6.158;2022-10-31T08:14:21;27.98;;;20.48;;
51499;SDS011;39101;53.478;6.158;2022-10-31T08:16:47;28.13;;;20.95;;
51499;SDS011;39101;53.478;6.158;2022-10-31T08:19:13;29.77;;;20.38;;
51499;SDS011;39101;53.478;6.158;2022-10-31T08:21:39;24.70;;;19.25;;
51499;SDS011;39101;53.478;6.158;2022-10-31T08:24:05;23.77;;;19.63;;
51499;SDS011;39101;53.478;6.158;2022-10-31T08:26:30;28.75;;;19.90;;
51499;SDS011;39101;53.478;6.158;2022-10-31T08:28:56;26.48;;;19.83;;
51499;SDS011;39101;53.478;6.158;2022-10-31T08:31:22;26.02;;;20.00;;
51499;SDS011;39101;53.478;6.158;2022-10-31T08:33:48;31.85;;;20.17;;
51499;SDS011;39101;53.478;6.158;2022-10-31T08:36:14;26.80;;;20.70;;
51499;SDS011;39101;53.478;6.158;2022-10-31T08:38:40;24.50;;;18.77;;
51499;SDS011;39101;53.478;6.158;2022-10-31T08:41:05;21.10;;;17.50;;
51499;SDS011;39101;53.478;6.158;2022-10-31T08:43:31;24.10;;;17.90;;
51499;SDS011;39101;53.478;6.158;2022-10-31T08:45:56;24.63;;;17.95;;
51499;SDS011;39101;53.478;6.158;2022-10-31T08:48:22;23.85;;;18.63;;
51499;SDS011;39101;53.478;6.158;2022-10-31T08:50:48;26.85;;;19.13;;
51499;SDS011;39101;53.478;6.158;2022-10-31T08:53:14;24.13;;;19.13;;
51499;SDS011;39101;53.478;6.158;2022-10-31T08:55:41;20.58;;;17.17;;
51499;SDS011;39101;53.478;6.158;2022-10-31T08:58:12;22.95;;;18.85;;
51499;SDS011;39101;53.478;6.158;2022-10-31T09:00:40;21.40;;;16.70;;
51499;SDS011;39101;53.478;6.158;2022-10-31T09:03:11;19.65;;;15.27;;
51499;SDS011;39101;53.478;6.158;2022-10-31T09:05:38;18.40;;;15.65;;
51499;SDS011;39101;53.478;6.158;2022-10-31T09:08:05;21.42;;;16.50;;
51499;SDS011;39101;53.478;6.158;2022-10-31T09:10:32;24.23;;;15.48;;
51499;SDS011;39101;53.478;6.158;2022-10-31T09:13:00;19.55;;;16.13;;
51499;SDS011;39101;53.478;6.158;2022-10-31T09:15:34;19.90;;;16.20;;
51499;SDS011;39101;53.478;6.158;2022-10-31T09:18:03;18.08;;;15.13;;
51499;SDS011;39101;53.478;6.158;2022-10-31T09:20:30;20.67;;;15.55;;
51499;SDS011;39101;53.478;6.158;2022-10-31T09:22:58;18.98;;;15.88;;
51499;SDS011;39101;53.478;6.158;2022-10-31T09:25:25;20.67;;;15.25;;
51499;SDS011;39101;53.478;6.158;2022-10-31T09:27:51;19.13;;;15.10;;
51499;SDS011;39101;53.478;6.158;2022-10-31T09:30:24;21.10;;;15.38;;
51499;SDS011;39101;53.478;6.158;2022-10-31T09:32:57;17.42;;;14.75;;
51499;SDS011;39101;53.478;6.158;2022-10-31T09:35:28;22.85;;;14.68;;
51499;SDS011;39101;53.478;6.158;2022-10-31T09:37:54;23.83;;;15.85;;
51499;SDS011;39101;53.478;6.158;2022-10-31T09:40:21;22.95;;;14.98;;
51499;SDS011;39101;53.478;6.158;2022-10-31T09:42:59;20.95;;;15.13;;
51499;SDS011;39101;53.478;6.158;2022-10-31T09:51:04;19.67;;;13.88;;
51499;SDS011;39101;53.478;6.158;2022-10-31T09:56:08;15.90;;;12.35;;
51499;SDS011;39101;53.478;6.158;2022-10-31T09:58:43;15.77;;;12.93;;
51499;SDS011;39101;53.478;6.158;2022-10-31T10:01:54;16.80;;;13.60;;
51499;SDS011;39101;53.478;6.158;2022-10-31T10:05:13;15.07;;;11.65;;
51499;SDS011;39101;53.478;6.158;2022-10-31T10:07:25;13.52;;;11.45;;
51499;SDS011;39101;53.478;6.158;2022-10-31T10:09:58;15.25;;;11.13;;
51499;SDS011;39101;53.478;6.158;2022-10-31T10:18:02;17.67;;;12.05;;
51499;SDS011;39101;53.478;6.158;2022-10-31T10:20:43;18.10;;;12.60;;
51499;SDS011;39101;53.478;6.158;2022-10-31T10:23:27;16.17;;;11.60;;
51499;SDS011;39101;53.478;6.158;2022-10-31T10:26:21;14.35;;;10.38;;
51499;SDS011;39101;53.478;6.158;2022-10-31T10:29:25;14.23;;;10.50;;
51499;SDS011;39101;53.478;6.158;2022-10-31T10:31:58;15.77;;;9.82;;
51499;SDS011;39101;53.478;6.158;2022-10-31T10:34:35;16.65;;;11.07;;
51499;SDS011;39101;53.478;6.158;2022-10-31T10:37:17;13.55;;;9.70;;
51499;SDS011;39101;53.478;6.158;2022-10-31T10:39:55;13.93;;;10.15;;
51499;SDS011;39101;53.478;6.158;2022-10-31T10:42:33;20.35;;;11.10;;
51499;SDS011;39101;53.478;6.158;2022-10-31T10:45:19;18.60;;;9.45;;
51499;SDS011;39101;53.478;6.158;2022-10-31T10:48:20;11.77;;;8.60;;
51499;SDS011;39101;53.478;6.158;2022-10-31T10:50:48;14.50;;;8.38;;
51499;SDS011;39101;53.478;6.158;2022-10-31T10:58:45;13.23;;;7.88;;
51499;SDS011;39101;53.478;6.158;2022-10-31T11:01:14;12.80;;;8.63;;
51499;SDS011;39101;53.478;6.158;2022-10-31T11:03:40;10.63;;;7.90;;
51499;SDS011;39101;53.478;6.158;2022-10-31T11:06:19;13.45;;;8.15;;
51499;SDS011;39101;53.478;6.158;2022-10-31T11:08:50;14.80;;;8.13;;
51499;SDS011;39101;53.478;6.158;2022-10-31T11:13:44;14.02;;;6.80;;
51499;SDS011;39101;53.478;6.158;2022-10-31T11:16:13;15.57;;;8.30;;
51499;SDS011;39101;53.478;6.158;2022-10-31T11:18:51;13.02;;;7.80;;
51499;SDS011;39101;53.478;6.158;2022-10-31T11:21:23;12.23;;;7.78;;
51499;SDS011;39101;53.478;6.158;2022-10-31T11:26:51;13.20;;;7.47;;
51499;SDS011;39101;53.478;6.158;2022-10-31T11:29:27;10.20;;;7.22;;
51499;SDS011;39101;53.478;6.158;2022-10-31T11:31:53;15.15;;;7.97;;
51499;SDS011;39101;53.478;6.158;2022-10-31T11:37:20;9.68;;;7.22;;
51499;SDS011;39101;53.478;6.158;2022-10-31T11:39:51;11.48;;;7.97;;
51499;SDS011;39101;53.478;6.158;2022-10-31T11:42:23;11.63;;;8.13;;
51499;SDS011;39101;53.478;6.158;2022-10-31T11:44:53;10.52;;;7.82;;
51499;SDS011;39101;53.478;6.158;2022-10-31T11:47:29;12.10;;;7.45;;
51499;SDS011;39101;53.478;6.158;2022-10-31T11:49:57;14.18;;;8.30;;
51499;SDS011;39101;53.478;6.158;2022-10-31T11:52:34;11.93;;;7.43;;
51499;SDS011;39101;53.478;6.158;2022-10-31T11:55:15;12.30;;;7.07;;
51499;SDS011;39101;53.478;6.158;2022-10-31T11:57:54;12.95;;;7.18;;
51499;SDS011;39101;53.478;6.158;2022-10-31T12:02:49;11.15;;;6.13;;
51499;SDS011;39101;53.478;6.158;2022-10-31T12:05:25;12.02;;;6.68;;
51499;SDS011;39101;53.478;6.158;2022-10-31T12:07:58;12.50;;;6.50;;
51499;SDS011;39101;53.478;6.158;2022-10-31T12:10:25;9.63;;;6.55;;
51499;SDS011;39101;53.478;6.158;2022-10-31T12:15:57;10.32;;;6.00;;
51499;SDS011;39101;53.478;6.158;2022-10-31T12:29:37;9.60;;;5.55;;
51499;SDS011;39101;53.478;6.158;2022-10-31T12:32:19;9.50;;;6.00;;
51499;SDS011;39101;53.478;6.158;2022-10-31T12:37:49;11.30;;;5.10;;
51499;SDS011;39101;53.478;6.158;2022-10-31T12:40:30;9.48;;;5.45;;
51499;SDS011;39101;53.478;6.158;2022-10-31T12:51:03;11.85;;;5.75;;
51499;SDS011;39101;53.478;6.158;2022-10-31T13:01:28;10.95;;;8.82;;
51499;SDS011;39101;53.478;6.158;2022-10-31T13:04:15;10.63;;;7.65;;
51499;SDS011;39101;53.478;6.158;2022-10-31T13:06:49;13.88;;;8.48;;
51499;SDS011;39101;53.478;6.158;2022-10-31T13:09:22;19.00;;;7.10;;
51499;SDS011;39101;53.478;6.158;2022-10-31T13:12:01;10.07;;;6.75;;
51499;SDS011;39101;53.478;6.158;2022-10-31T13:14:51;12.25;;;7.97;;
51499;SDS011;39101;53.478;6.158;2022-10-31T13:17:27;13.10;;;8.60;;
51499;SDS011;39101;53.478;6.158;2022-10-31T13:20:11;10.38;;;8.48;;
51499;SDS011;39101;53.478;6.158;2022-10-31T13:22:38;13.55;;;7.88;;
51499;SDS011;39101;53.478;6.158;2022-10-31T13:30:13;12.30;;;8.05;;
51499;SDS011;39101;53.478;6.158;2022-10-31T13:32:44;14.05;;;10.18;;
51499;SDS011;39101;53.478;6.158;2022-10-31T13:35:26;15.90;;;10.90;;
51499;SDS011;39101;53.478;6.158;2022-10-31T13:38:22;14.00;;;10.98;;
51499;SDS011;39101;53.478;6.158;2022-10-31T13:41:22;15.45;;;10.35;;
51499;SDS011;39101;53.478;6.158;2022-10-31T13:47:27;13.77;;;10.07;;
51499;SDS011;39101;53.478;6.158;2022-10-31T13:50:18;13.40;;;10.07;;
51499;SDS011;39101;53.478;6.158;2022-10-31T13:52:44;15.25;;;9.23;;
51499;SDS011;39101;53.478;6.158;2022-10-31T13:58:03;11.38;;;7.45;;
51499;SDS011;39101;53.478;6.158;2022-10-31T14:00:30;11.45;;;7.30;;
51499;SDS011;39101;53.478;6.158;2022-10-31T14:03:00;11.98;;;7.22;;
51499;SDS011;39101;53.478;6.158;2022-10-31T14:08:00;12.75;;;6.25;;
51499;SDS011;39101;53.478;6.158;2022-10-31T14:18:32;9.50;;;5.30;;
51499;SDS011;39101;53.478;6.158;2022-10-31T14:21:01;10.18;;;4.80;;
51499;SDS011;39101;53.478;6.158;2022-10-31T14:23:39;12.75;;;4.85;;
51499;SDS011;39101;53.478;6.158;2022-10-31T14:26:20;12.98;;;5.70;;
51499;SDS011;39101;53.478;6.158;2022-10-31T14:28:57;11.95;;;4.68;;
51499;SDS011;39101;53.478;6.158;2022-10-31T14:31:41;11.30;;;4.93;;
51499;SDS011;39101;53.478;6.158;2022-10-31T14:34:23;11.15;;;4.53;;
51499;SDS011;39101;53.478;6.158;2022-10-31T14:51:02;7.70;;;3.90;;
51499;SDS011;39101;53.478;6.158;2022-10-31T14:53:40;9.40;;;4.32;;
51499;SDS011;39101;53.478;6.158;2022-10-31T14:56:29;10.23;;;4.65;;
51499;SDS011;39101;53.478;6.158;2022-10-31T14:59:01;8.23;;;4.20;;
51499;SDS011;39101;53.478;6.158;2022-10-31T15:01:35;10.32;;;5.00;;
51499;SDS011;39101;53.478;6.158;2022-10-31T15:04:05;14.25;;;5.50;;
51499;SDS011;39101;53.478;6.158;2022-10-31T15:06:44;10.48;;;6.20;;
51499;SDS011;39101;53.478;6.158;2022-10-31T15:09:26;13.85;;;6.78;;
51499;SDS011;39101;53.478;6.158;2022-10-31T15:11:57;12.60;;;6.72;;
51499;SDS011;39101;53.478;6.158;2022-10-31T15:14:29;17.98;;;7.20;;
51499;SDS011;39101;53.478;6.158;2022-10-31T15:17:01;11.73;;;6.20;;
51499;SDS011;39101;53.478;6.158;2022-10-31T15:19:30;14.52;;;6.57;;
51499;SDS011;39101;53.478;6.158;2022-10-31T15:21:58;9.75;;;6.25;;
51499;SDS011;39101;53.478;6.158;2022-10-31T15:24:31;16.60;;;6.82;;
51499;SDS011;39101;53.478;6.158;2022-10-31T15:27:02;17.35;;;7.90;;
51499;SDS011;39101;53.478;6.158;2022-10-31T15:29:28;13.20;;;6.85;;
51499;SDS011;39101;53.478;6.158;2022-10-31T15:31:55;13.13;;;7.10;;
51499;SDS011;39101;53.478;6.158;2022-10-31T15:37:03;11.70;;;6.85;;
51499;SDS011;39101;53.478;6.158;2022-10-31T15:39:28;12.68;;;7.38;;
51499;SDS011;39101;53.478;6.158;2022-10-31T15:41:55;15.18;;;7.72;;
51499;SDS011;39101;53.478;6.158;2022-10-31T15:44:26;15.68;;;7.30;;
51499;SDS011;39101;53.478;6.158;2022-10-31T15:46:58;13.23;;;7.00;;
51499;SDS011;39101;53.478;6.158;2022-10-31T15:49:36;16.95;;;7.47;;
51499;SDS011;39101;53.478;6.158;2022-10-31T15:52:45;14.23;;;7.90;;
51499;SDS011;39101;53.478;6.158;2022-10-31T15:55:01;14.50;;;7.35;;
51499;SDS011;39101;53.478;6.158;2022-10-31T15:57:30;16.20;;;7.78;;
51499;SDS011;39101;53.478;6.158;2022-10-31T15:59:56;15.75;;;7.88;;
51499;SDS011;39101;53.478;6.158;2022-10-31T16:02:24;11.32;;;7.72;;
51499;SDS011;39101;53.478;6.158;2022-10-31T16:04:55;18.00;;;8.90;;
51499;SDS011;39101;53.478;6.158;2022-10-31T16:07:28;12.95;;;7.70;;
51499;SDS011;39101;53.478;6.158;2022-10-31T16:09:59;16.05;;;9.93;;
51499;SDS011;39101;53.478;6.158;2022-10-31T16:12:30;17.27;;;9.32;;
51499;SDS011;39101;53.478;6.158;2022-10-31T16:14:59;18.13;;;9.40;;
51499;SDS011;39101;53.478;6.158;2022-10-31T16:17:25;17.95;;;10.93;;
51499;SDS011;39101;53.478;6.158;2022-10-31T16:19:59;18.63;;;11.02;;
51499;SDS011;39101;53.478;6.158;2022-10-31T16:22:29;20.50;;;10.82;;
51499;SDS011;39101;53.478;6.158;2022-10-31T16:27:27;17.77;;;11.38;;
51499;SDS011;39101;53.478;6.158;2022-10-31T16:29:56;21.33;;;12.63;;
51499;SDS011;39101;53.478;6.158;2022-10-31T16:32:27;16.13;;;10.52;;
51499;SDS011;39101;53.478;6.158;2022-10-31T16:34:59;17.48;;;10.13;;
51499;SDS011;39101;53.478;6.158;2022-10-31T16:37:37;20.52;;;10.68;;
51499;SDS011;39101;53.478;6.158;2022-10-31T16:40:03;15.13;;;10.30;;
51499;SDS011;39101;53.478;6.158;2022-10-31T16:42:30;16.10;;;11.13;;
51499;SDS011;39101;53.478;6.158;2022-10-31T16:44:55;20.17;;;12.40;;
51499;SDS011;39101;53.478;6.158;2022-10-31T16:47:21;17.48;;;11.48;;
51499;SDS011;39101;53.478;6.158;2022-10-31T16:49:47;22.65;;;12.20;;
51499;SDS011;39101;53.478;6.158;2022-10-31T16:52:15;18.77;;;13.25;;
51499;SDS011;39101;53.478;6.158;2022-10-31T16:54:41;19.20;;;13.10;;
51499;SDS011;39101;53.478;6.158;2022-10-31T16:57:10;19.70;;;12.88;;
51499;SDS011;39101;53.478;6.158;2022-10-31T16:59:42;31.35;;;14.32;;
51499;SDS011;39101;53.478;6.158;2022-10-31T17:02:13;20.48;;;14.32;;
51499;SDS011;39101;53.478;6.158;2022-10-31T17:04:41;23.45;;;13.88;;
51499;SDS011;39101;53.478;6.158;2022-10-31T17:07:06;18.80;;;13.95;;
51499;SDS011;39101;53.478;6.158;2022-10-31T17:09:32;19.17;;;13.93;;
51499;SDS011;39101;53.478;6.158;2022-10-31T17:11:58;20.63;;;12.52;;
51499;SDS011;39101;53.478;6.158;2022-10-31T17:14:24;17.50;;;13.02;;
51499;SDS011;39101;53.478;6.158;2022-10-31T17:16:50;19.90;;;13.88;;